sensor_id;sensor_type;location;lat;lon;timestamp;P1;durP1;ratioP1;P2;durP2;ratioP2
15968;SDS011;8085;53.472;9.794;2022-09-16T00:00:19;7.17;;;1.73;;
15968;SDS011;8085;53.472;9.794;2022-09-16T00:02:46;2.73;;;1.40;;
15968;SDS011;8085;53.472;9.794;2022-09-16T00:05:13;5.77;;;1.90;;
15968;SDS011;8085;53.472;9.794;2022-09-16T00:07:40;6.87;;;2.00;;
15968;SDS011;8085;53.472;9.794;2022-09-16T00:10:07;8.13;;;1.87;;
15968;SDS011;8085;53.472;9.794;2022-09-16T00:12:38;6.67;;;1.87;;
15968;SDS011;8085;53.472;9.794;2022-09-16T00:15:06;7.27;;;1.80;;
15968;SDS011;8085;53.472;9.794;2022-09-16T00:17:34;8.97;;;2.10;;
15968;SDS011;8085;53.472;9.794;2022-09-16T00:20:02;8.30;;;2.03;;
15968;SDS011;8085;53.472;9.794;2022-09-16T00:22:29;7.73;;;1.77;;
15968;SDS011;8085;53.472;9.794;2022-09-16T00:24:56;7.97;;;1.70;;
15968;SDS011;8085;53.472;9.794;2022-09-16T00:27:23;7.63;;;1.70;;
15968;SDS011;8085;53.472;9.794;2022-09-16T00:29:51;7.07;;;1.60;;
15968;SDS011;8085;53.472;9.794;2022-09-16T00:32:18;4.57;;;1.63;;
15968;SDS011;8085;53.472;9.794;2022-09-16T00:34:45;9.37;;;1.70;;
15968;SDS011;8085;53.472;9.794;2022-09-16T00:37:12;8.87;;;1.60;;
15968;SDS011;8085;53.472;9.794;2022-09-16T00:39:39;5.53;;;2.00;;
15968;SDS011;8085;53.472;9.794;2022-09-16T00:42:08;4.57;;;1.90;;
15968;SDS011;8085;53.472;9.794;2022-09-16T00:44:57;8.50;;;1.80;;
15968;SDS011;8085;53.472;9.794;2022-09-16T00:47:28;6.93;;;1.70;;
15968;SDS011;8085;53.472;9.794;2022-09-16T00:49:58;2.93;;;1.30;;
15968;SDS011;8085;53.472;9.794;2022-09-16T00:52:31;3.83;;;1.00;;
15968;SDS011;8085;53.472;9.794;2022-09-16T00:54:58;10.40;;;1.43;;
15968;SDS011;8085;53.472;9.794;2022-09-16T00:57:28;6.93;;;1.53;;
15968;SDS011;8085;53.472;9.794;2022-09-16T00:59:56;3.27;;;1.07;;
15968;SDS011;8085;53.472;9.794;2022-09-16T01:02:25;5.20;;;1.57;;
15968;SDS011;8085;53.472;9.794;2022-09-16T01:04:54;4.67;;;1.43;;
15968;SDS011;8085;53.472;9.794;2022-09-16T01:07:25;3.53;;;1.30;;
15968;SDS011;8085;53.472;9.794;2022-09-16T01:09:56;5.57;;;1.30;;
15968;SDS011;8085;53.472;9.794;2022-09-16T01:12:24;3.73;;;1.67;;
15968;SDS011;8085;53.472;9.794;2022-09-16T01:14:53;7.50;;;1.67;;
15968;SDS011;8085;53.472;9.794;2022-09-16T01:17:34;5.50;;;1.30;;
15968;SDS011;8085;53.472;9.794;2022-09-16T01:26:51;4.93;;;1.60;;
15968;SDS011;8085;53.472;9.794;2022-09-16T01:29:38;3.87;;;1.70;;
15968;SDS011;8085;53.472;9.794;2022-09-16T01:32:25;5.40;;;1.90;;
15968;SDS011;8085;53.472;9.794;2022-09-16T01:35:00;6.47;;;1.93;;
15968;SDS011;8085;53.472;9.794;2022-09-16T01:37:35;6.93;;;1.73;;
15968;SDS011;8085;53.472;9.794;2022-09-16T01:40:09;7.50;;;2.23;;
15968;SDS011;8085;53.472;9.794;2022-09-16T01:42:42;6.77;;;1.90;;
15968;SDS011;8085;53.472;9.794;2022-09-16T01:45:16;4.63;;;1.80;;
15968;SDS011;8085;53.472;9.794;2022-09-16T01:47:51;7.33;;;2.03;;
15968;SDS011;8085;53.472;9.794;2022-09-16T01:50:23;3.90;;;1.83;;
15968;SDS011;8085;53.472;9.794;2022-09-16T01:52:57;6.63;;;2.00;;
15968;SDS011;8085;53.472;9.794;2022-09-16T01:55:31;7.83;;;1.90;;
15968;SDS011;8085;53.472;9.794;2022-09-16T01:58:04;5.10;;;1.50;;
15968;SDS011;8085;53.472;9.794;2022-09-16T02:00:35;7.60;;;2.00;;
15968;SDS011;8085;53.472;9.794;2022-09-16T02:03:06;4.83;;;1.43;;
15968;SDS011;8085;53.472;9.794;2022-09-16T02:05:39;5.20;;;1.37;;
15968;SDS011;8085;53.472;9.794;2022-09-16T02:08:12;8.50;;;1.63;;
15968;SDS011;8085;53.472;9.794;2022-09-16T02:10:44;5.47;;;1.63;;
15968;SDS011;8085;53.472;9.794;2022-09-16T02:13:16;4.47;;;1.70;;
15968;SDS011;8085;53.472;9.794;2022-09-16T02:15:46;6.80;;;1.40;;
15968;SDS011;8085;53.472;9.794;2022-09-16T02:18:18;6.40;;;1.63;;
15968;SDS011;8085;53.472;9.794;2022-09-16T02:20:49;9.37;;;1.70;;
15968;SDS011;8085;53.472;9.794;2022-09-16T02:23:21;5.67;;;1.50;;
15968;SDS011;8085;53.472;9.794;2022-09-16T02:25:50;2.57;;;1.20;;
15968;SDS011;8085;53.472;9.794;2022-09-16T02:28:21;5.17;;;1.50;;
15968;SDS011;8085;53.472;9.794;2022-09-16T02:30:53;6.50;;;1.50;;
15968;SDS011;8085;53.472;9.794;2022-09-16T02:33:25;8.50;;;1.67;;
15968;SDS011;8085;53.472;9.794;2022-09-16T02:35:56;6.83;;;1.70;;
15968;SDS011;8085;53.472;9.794;2022-09-16T02:38:28;9.57;;;1.70;;
15968;SDS011;8085;53.472;9.794;2022-09-16T02:41:00;4.80;;;1.80;;
15968;SDS011;8085;53.472;9.794;2022-09-16T02:43:27;7.43;;;1.60;;
15968;SDS011;8085;53.472;9.794;2022-09-16T02:45:57;3.83;;;1.40;;
15968;SDS011;8085;53.472;9.794;2022-09-16T02:48:36;4.43;;;1.80;;
15968;SDS011;8085;53.472;9.794;2022-09-16T02:51:14;6.83;;;1.87;;
15968;SDS011;8085;53.472;9.794;2022-09-16T02:53:48;5.27;;;1.70;;
15968;SDS011;8085;53.472;9.794;2022-09-16T02:56:20;8.60;;;1.83;;
15968;SDS011;8085;53.472;9.794;2022-09-16T02:58:52;5.63;;;1.93;;
15968;SDS011;8085;53.472;9.794;2022-09-16T03:01:19;11.90;;;2.10;;
15968;SDS011;8085;53.472;9.794;2022-09-16T03:03:49;6.80;;;2.00;;
15968;SDS011;8085;53.472;9.794;2022-09-16T03:06:20;7.63;;;1.87;;
15968;SDS011;8085;53.472;9.794;2022-09-16T03:08:49;5.53;;;2.10;;
15968;SDS011;8085;53.472;9.794;2022-09-16T03:11:22;2.70;;;1.60;;
15968;SDS011;8085;53.472;9.794;2022-09-16T03:14:09;7.00;;;2.23;;
15968;SDS011;8085;53.472;9.794;2022-09-16T03:16:52;4.03;;;1.70;;
15968;SDS011;8085;53.472;9.794;2022-09-16T03:19:27;8.10;;;2.33;;
15968;SDS011;8085;53.472;9.794;2022-09-16T03:22:00;8.90;;;2.57;;
15968;SDS011;8085;53.472;9.794;2022-09-16T03:24:38;7.40;;;2.27;;
15968;SDS011;8085;53.472;9.794;2022-09-16T03:27:15;8.27;;;2.70;;
15968;SDS011;8085;53.472;9.794;2022-09-16T03:29:47;8.97;;;2.63;;
15968;SDS011;8085;53.472;9.794;2022-09-16T03:32:19;6.37;;;2.33;;
15968;SDS011;8085;53.472;9.794;2022-09-16T03:34:50;4.60;;;2.83;;
15968;SDS011;8085;53.472;9.794;2022-09-16T03:37:19;10.17;;;2.30;;
15968;SDS011;8085;53.472;9.794;2022-09-16T03:39:49;10.00;;;2.93;;
15968;SDS011;8085;53.472;9.794;2022-09-16T03:42:18;3.90;;;2.67;;
15968;SDS011;8085;53.472;9.794;2022-09-16T03:44:45;8.13;;;2.87;;
15968;SDS011;8085;53.472;9.794;2022-09-16T03:47:13;5.07;;;3.00;;
15968;SDS011;8085;53.472;9.794;2022-09-16T03:49:41;6.57;;;2.47;;
15968;SDS011;8085;53.472;9.794;2022-09-16T03:52:09;7.13;;;2.77;;
15968;SDS011;8085;53.472;9.794;2022-09-16T03:54:36;6.27;;;2.70;;
15968;SDS011;8085;53.472;9.794;2022-09-16T03:57:03;6.83;;;2.73;;
15968;SDS011;8085;53.472;9.794;2022-09-16T03:59:31;5.20;;;2.37;;
15968;SDS011;8085;53.472;9.794;2022-09-16T04:01:58;7.63;;;2.53;;
15968;SDS011;8085;53.472;9.794;2022-09-16T04:04:25;6.93;;;2.40;;
15968;SDS011;8085;53.472;9.794;2022-09-16T04:06:51;6.20;;;2.40;;
15968;SDS011;8085;53.472;9.794;2022-09-16T04:09:20;4.03;;;1.97;;
15968;SDS011;8085;53.472;9.794;2022-09-16T04:11:47;4.73;;;2.30;;
15968;SDS011;8085;53.472;9.794;2022-09-16T04:14:13;5.87;;;2.50;;
15968;SDS011;8085;53.472;9.794;2022-09-16T04:16:40;6.23;;;2.37;;
15968;SDS011;8085;53.472;9.794;2022-09-16T04:19:08;3.93;;;2.20;;
15968;SDS011;8085;53.472;9.794;2022-09-16T04:21:37;6.83;;;2.50;;
15968;SDS011;8085;53.472;9.794;2022-09-16T04:24:04;10.13;;;2.90;;
15968;SDS011;8085;53.472;9.794;2022-09-16T04:26:32;6.40;;;2.60;;
15968;SDS011;8085;53.472;9.794;2022-09-16T04:28:59;4.60;;;2.37;;
15968;SDS011;8085;53.472;9.794;2022-09-16T04:31:26;9.83;;;2.87;;
15968;SDS011;8085;53.472;9.794;2022-09-16T04:33:53;8.43;;;2.47;;
15968;SDS011;8085;53.472;9.794;2022-09-16T04:36:19;4.53;;;1.97;;
15968;SDS011;8085;53.472;9.794;2022-09-16T04:38:46;4.83;;;2.20;;
15968;SDS011;8085;53.472;9.794;2022-09-16T04:41:14;3.73;;;2.13;;
15968;SDS011;8085;53.472;9.794;2022-09-16T04:43:44;5.87;;;2.17;;
15968;SDS011;8085;53.472;9.794;2022-09-16T04:46:11;6.10;;;1.93;;
15968;SDS011;8085;53.472;9.794;2022-09-16T04:48:39;9.97;;;2.23;;
15968;SDS011;8085;53.472;9.794;2022-09-16T04:51:06;5.23;;;2.13;;
15968;SDS011;8085;53.472;9.794;2022-09-16T04:53:35;6.43;;;2.50;;
15968;SDS011;8085;53.472;9.794;2022-09-16T04:56:03;6.53;;;2.50;;
15968;SDS011;8085;53.472;9.794;2022-09-16T04:58:31;4.40;;;2.23;;
15968;SDS011;8085;53.472;9.794;2022-09-16T05:01:03;8.63;;;2.60;;
15968;SDS011;8085;53.472;9.794;2022-09-16T05:03:31;5.07;;;2.70;;
15968;SDS011;8085;53.472;9.794;2022-09-16T05:06:05;4.37;;;2.60;;
15968;SDS011;8085;53.472;9.794;2022-09-16T05:08:33;9.13;;;2.83;;
15968;SDS011;8085;53.472;9.794;2022-09-16T05:11:04;11.57;;;3.30;;
15968;SDS011;8085;53.472;9.794;2022-09-16T05:13:32;6.37;;;3.27;;
15968;SDS011;8085;53.472;9.794;2022-09-16T05:16:00;9.47;;;2.80;;
15968;SDS011;8085;53.472;9.794;2022-09-16T05:18:29;3.87;;;2.47;;
15968;SDS011;8085;53.472;9.794;2022-09-16T05:20:57;6.97;;;3.00;;
15968;SDS011;8085;53.472;9.794;2022-09-16T05:23:24;5.70;;;2.70;;
15968;SDS011;8085;53.472;9.794;2022-09-16T05:25:51;8.47;;;2.80;;
15968;SDS011;8085;53.472;9.794;2022-09-16T05:28:19;5.77;;;2.70;;
15968;SDS011;8085;53.472;9.794;2022-09-16T05:30:45;7.40;;;2.70;;
15968;SDS011;8085;53.472;9.794;2022-09-16T05:33:12;5.60;;;2.50;;
15968;SDS011;8085;53.472;9.794;2022-09-16T05:35:40;10.07;;;2.77;;
15968;SDS011;8085;53.472;9.794;2022-09-16T05:38:09;4.43;;;2.40;;
15968;SDS011;8085;53.472;9.794;2022-09-16T05:40:37;8.57;;;2.63;;
15968;SDS011;8085;53.472;9.794;2022-09-16T05:43:03;5.83;;;2.53;;
15968;SDS011;8085;53.472;9.794;2022-09-16T05:45:30;8.73;;;2.53;;
15968;SDS011;8085;53.472;9.794;2022-09-16T05:47:57;4.83;;;2.00;;
15968;SDS011;8085;53.472;9.794;2022-09-16T05:50:24;5.83;;;2.20;;
15968;SDS011;8085;53.472;9.794;2022-09-16T05:52:53;9.70;;;1.80;;
15968;SDS011;8085;53.472;9.794;2022-09-16T05:55:20;5.37;;;2.43;;
15968;SDS011;8085;53.472;9.794;2022-09-16T05:57:47;7.50;;;2.17;;
15968;SDS011;8085;53.472;9.794;2022-09-16T06:00:14;5.03;;;2.07;;
15968;SDS011;8085;53.472;9.794;2022-09-16T06:02:41;10.47;;;2.13;;
15968;SDS011;8085;53.472;9.794;2022-09-16T06:05:07;3.80;;;1.80;;
15968;SDS011;8085;53.472;9.794;2022-09-16T06:07:34;9.07;;;2.20;;
15968;SDS011;8085;53.472;9.794;2022-09-16T06:10:03;9.57;;;2.00;;
15968;SDS011;8085;53.472;9.794;2022-09-16T06:12:31;6.90;;;1.60;;
15968;SDS011;8085;53.472;9.794;2022-09-16T06:14:58;6.43;;;1.47;;
15968;SDS011;8085;53.472;9.794;2022-09-16T06:17:24;3.67;;;1.50;;
15968;SDS011;8085;53.472;9.794;2022-09-16T06:19:51;6.23;;;1.70;;
15968;SDS011;8085;53.472;9.794;2022-09-16T06:22:18;3.67;;;1.40;;
15968;SDS011;8085;53.472;9.794;2022-09-16T06:24:45;7.60;;;2.13;;
15968;SDS011;8085;53.472;9.794;2022-09-16T06:27:13;5.07;;;1.40;;
15968;SDS011;8085;53.472;9.794;2022-09-16T06:29:40;12.43;;;1.80;;
15968;SDS011;8085;53.472;9.794;2022-09-16T06:32:06;4.30;;;1.43;;
15968;SDS011;8085;53.472;9.794;2022-09-16T06:34:33;8.37;;;1.80;;
15968;SDS011;8085;53.472;9.794;2022-09-16T06:37:00;9.03;;;1.77;;
15968;SDS011;8085;53.472;9.794;2022-09-16T06:39:27;10.07;;;1.67;;
15968;SDS011;8085;53.472;9.794;2022-09-16T06:41:53;5.67;;;1.50;;
15968;SDS011;8085;53.472;9.794;2022-09-16T06:44:21;6.07;;;1.60;;
15968;SDS011;8085;53.472;9.794;2022-09-16T06:46:48;5.93;;;1.30;;
15968;SDS011;8085;53.472;9.794;2022-09-16T06:49:15;8.33;;;2.03;;
15968;SDS011;8085;53.472;9.794;2022-09-16T06:51:42;7.20;;;1.30;;
15968;SDS011;8085;53.472;9.794;2022-09-16T06:54:09;7.30;;;1.50;;
15968;SDS011;8085;53.472;9.794;2022-09-16T06:56:36;5.70;;;1.60;;
15968;SDS011;8085;53.472;9.794;2022-09-16T06:59:05;5.93;;;1.40;;
15968;SDS011;8085;53.472;9.794;2022-09-16T07:01:34;5.33;;;1.10;;
15968;SDS011;8085;53.472;9.794;2022-09-16T07:04:02;6.07;;;1.13;;
15968;SDS011;8085;53.472;9.794;2022-09-16T07:06:31;6.97;;;1.20;;
15968;SDS011;8085;53.472;9.794;2022-09-16T07:08:58;8.07;;;1.30;;
15968;SDS011;8085;53.472;9.794;2022-09-16T07:11:25;4.63;;;1.40;;
15968;SDS011;8085;53.472;9.794;2022-09-16T07:13:53;3.27;;;1.20;;
15968;SDS011;8085;53.472;9.794;2022-09-16T07:16:21;7.60;;;1.40;;
15968;SDS011;8085;53.472;9.794;2022-09-16T07:18:52;4.60;;;1.20;;
15968;SDS011;8085;53.472;9.794;2022-09-16T07:21:21;7.43;;;1.50;;
15968;SDS011;8085;53.472;9.794;2022-09-16T07:23:50;4.07;;;1.43;;
15968;SDS011;8085;53.472;9.794;2022-09-16T07:26:20;5.47;;;1.30;;
15968;SDS011;8085;53.472;9.794;2022-09-16T07:28:50;6.07;;;1.13;;
15968;SDS011;8085;53.472;9.794;2022-09-16T07:31:18;6.47;;;1.33;;
15968;SDS011;8085;53.472;9.794;2022-09-16T07:33:48;6.13;;;1.20;;
15968;SDS011;8085;53.472;9.794;2022-09-16T07:36:18;5.40;;;1.30;;
15968;SDS011;8085;53.472;9.794;2022-09-16T07:38:46;8.80;;;1.17;;
15968;SDS011;8085;53.472;9.794;2022-09-16T07:41:14;9.40;;;1.30;;
15968;SDS011;8085;53.472;9.794;2022-09-16T07:43:42;6.97;;;1.83;;
15968;SDS011;8085;53.472;9.794;2022-09-16T07:46:10;7.57;;;1.27;;
15968;SDS011;8085;53.472;9.794;2022-09-16T07:48:38;5.23;;;1.33;;
15968;SDS011;8085;53.472;9.794;2022-09-16T07:51:06;8.37;;;1.50;;
15968;SDS011;8085;53.472;9.794;2022-09-16T07:53:35;8.13;;;1.20;;
15968;SDS011;8085;53.472;9.794;2022-09-16T07:56:03;9.17;;;1.50;;
15968;SDS011;8085;53.472;9.794;2022-09-16T07:58:31;4.57;;;1.20;;
15968;SDS011;8085;53.472;9.794;2022-09-16T08:00:59;7.60;;;1.40;;
15968;SDS011;8085;53.472;9.794;2022-09-16T08:03:27;5.73;;;1.40;;
15968;SDS011;8085;53.472;9.794;2022-09-16T08:05:57;6.77;;;1.20;;
15968;SDS011;8085;53.472;9.794;2022-09-16T08:08:25;5.80;;;1.20;;
15968;SDS011;8085;53.472;9.794;2022-09-16T08:10:54;10.43;;;1.30;;
15968;SDS011;8085;53.472;9.794;2022-09-16T08:13:21;6.70;;;1.20;;
15968;SDS011;8085;53.472;9.794;2022-09-16T08:15:47;6.87;;;1.40;;
15968;SDS011;8085;53.472;9.794;2022-09-16T08:18:14;5.10;;;1.43;;
15968;SDS011;8085;53.472;9.794;2022-09-16T08:20:41;7.13;;;1.90;;
15968;SDS011;8085;53.472;9.794;2022-09-16T08:23:08;5.17;;;1.23;;
15968;SDS011;8085;53.472;9.794;2022-09-16T08:25:35;4.80;;;1.40;;
15968;SDS011;8085;53.472;9.794;2022-09-16T08:28:03;8.30;;;1.47;;
15968;SDS011;8085;53.472;9.794;2022-09-16T08:30:30;5.90;;;1.30;;
15968;SDS011;8085;53.472;9.794;2022-09-16T08:32:57;6.83;;;1.07;;
15968;SDS011;8085;53.472;9.794;2022-09-16T08:35:24;9.70;;;1.63;;
15968;SDS011;8085;53.472;9.794;2022-09-16T08:37:51;5.47;;;1.87;;
15968;SDS011;8085;53.472;9.794;2022-09-16T08:40:20;10.27;;;1.30;;
15968;SDS011;8085;53.472;9.794;2022-09-16T08:42:55;7.10;;;1.57;;
15968;SDS011;8085;53.472;9.794;2022-09-16T08:45:32;7.83;;;1.10;;
15968;SDS011;8085;53.472;9.794;2022-09-16T08:48:09;8.73;;;1.37;;
15968;SDS011;8085;53.472;9.794;2022-09-16T08:50:47;7.87;;;1.87;;
15968;SDS011;8085;53.472;9.794;2022-09-16T08:53:16;13.40;;;1.57;;
15968;SDS011;8085;53.472;9.794;2022-09-16T08:55:48;5.03;;;1.43;;
15968;SDS011;8085;53.472;9.794;2022-09-16T08:58:16;8.47;;;1.50;;
15968;SDS011;8085;53.472;9.794;2022-09-16T09:00:49;7.07;;;1.47;;
15968;SDS011;8085;53.472;9.794;2022-09-16T09:03:22;8.37;;;1.33;;
15968;SDS011;8085;53.472;9.794;2022-09-16T09:05:58;5.93;;;1.20;;
15968;SDS011;8085;53.472;9.794;2022-09-16T09:08:32;8.63;;;1.33;;
15968;SDS011;8085;53.472;9.794;2022-09-16T09:11:08;6.90;;;1.30;;
15968;SDS011;8085;53.472;9.794;2022-09-16T09:13:43;8.67;;;1.77;;
15968;SDS011;8085;53.472;9.794;2022-09-16T09:16:23;6.63;;;1.43;;
15968;SDS011;8085;53.472;9.794;2022-09-16T09:19:02;4.27;;;1.20;;
15968;SDS011;8085;53.472;9.794;2022-09-16T09:21:40;3.03;;;1.10;;
15968;SDS011;8085;53.472;9.794;2022-09-16T09:24:29;10.07;;;1.53;;
15968;SDS011;8085;53.472;9.794;2022-09-16T09:27:07;10.83;;;1.17;;
15968;SDS011;8085;53.472;9.794;2022-09-16T09:29:51;4.70;;;0.90;;
15968;SDS011;8085;53.472;9.794;2022-09-16T09:32:32;2.13;;;0.70;;
15968;SDS011;8085;53.472;9.794;2022-09-16T09:35:11;3.70;;;0.80;;
15968;SDS011;8085;53.472;9.794;2022-09-16T09:37:51;8.90;;;1.10;;
15968;SDS011;8085;53.472;9.794;2022-09-16T09:40:39;2.60;;;0.73;;
15968;SDS011;8085;53.472;9.794;2022-09-16T09:43:11;7.73;;;1.10;;
15968;SDS011;8085;53.472;9.794;2022-09-16T09:45:44;6.37;;;1.47;;
15968;SDS011;8085;53.472;9.794;2022-09-16T09:48:21;3.27;;;1.00;;
15968;SDS011;8085;53.472;9.794;2022-09-16T09:50:51;4.03;;;1.00;;
15968;SDS011;8085;53.472;9.794;2022-09-16T09:53:19;6.17;;;1.37;;
15968;SDS011;8085;53.472;9.794;2022-09-16T09:55:53;8.97;;;1.27;;
15968;SDS011;8085;53.472;9.794;2022-09-16T09:58:28;3.90;;;1.17;;
15968;SDS011;8085;53.472;9.794;2022-09-16T10:01:01;2.97;;;1.00;;
15968;SDS011;8085;53.472;9.794;2022-09-16T10:03:30;6.10;;;1.20;;
15968;SDS011;8085;53.472;9.794;2022-09-16T10:05:57;6.83;;;1.30;;
15968;SDS011;8085;53.472;9.794;2022-09-16T10:08:24;7.43;;;1.23;;
15968;SDS011;8085;53.472;9.794;2022-09-16T10:10:55;4.07;;;0.90;;
15968;SDS011;8085;53.472;9.794;2022-09-16T10:13:24;6.13;;;1.20;;
15968;SDS011;8085;53.472;9.794;2022-09-16T10:15:52;5.43;;;1.07;;
15968;SDS011;8085;53.472;9.794;2022-09-16T10:18:22;6.63;;;1.40;;
15968;SDS011;8085;53.472;9.794;2022-09-16T10:21:00;4.97;;;1.10;;
15968;SDS011;8085;53.472;9.794;2022-09-16T10:23:32;4.27;;;0.97;;
15968;SDS011;8085;53.472;9.794;2022-09-16T10:26:04;6.60;;;0.93;;
15968;SDS011;8085;53.472;9.794;2022-09-16T10:28:32;6.30;;;1.10;;
15968;SDS011;8085;53.472;9.794;2022-09-16T10:30:59;6.90;;;0.90;;
15968;SDS011;8085;53.472;9.794;2022-09-16T10:33:27;4.60;;;1.23;;
15968;SDS011;8085;53.472;9.794;2022-09-16T10:35:57;5.27;;;1.40;;
15968;SDS011;8085;53.472;9.794;2022-09-16T10:38:33;5.90;;;1.10;;
15968;SDS011;8085;53.472;9.794;2022-09-16T10:41:03;4.93;;;1.37;;
15968;SDS011;8085;53.472;9.794;2022-09-16T10:43:33;5.47;;;1.30;;
15968;SDS011;8085;53.472;9.794;2022-09-16T10:46:03;5.53;;;1.40;;
15968;SDS011;8085;53.472;9.794;2022-09-16T10:48:30;5.70;;;1.23;;
15968;SDS011;8085;53.472;9.794;2022-09-16T10:51:02;4.77;;;1.30;;
15968;SDS011;8085;53.472;9.794;2022-09-16T10:53:31;9.47;;;1.40;;
15968;SDS011;8085;53.472;9.794;2022-09-16T10:56:00;5.17;;;1.10;;
15968;SDS011;8085;53.472;9.794;2022-09-16T10:58:28;6.43;;;1.43;;
15968;SDS011;8085;53.472;9.794;2022-09-16T11:00:59;3.47;;;1.03;;
15968;SDS011;8085;53.472;9.794;2022-09-16T11:03:45;3.37;;;1.00;;
15968;SDS011;8085;53.472;9.794;2022-09-16T11:06:45;3.20;;;1.07;;
15968;SDS011;8085;53.472;9.794;2022-09-16T11:09:22;6.67;;;1.40;;
15968;SDS011;8085;53.472;9.794;2022-09-16T11:12:00;4.53;;;0.80;;
15968;SDS011;8085;53.472;9.794;2022-09-16T11:14:50;5.73;;;1.00;;
15968;SDS011;8085;53.472;9.794;2022-09-16T11:17:27;5.03;;;1.07;;
15968;SDS011;8085;53.472;9.794;2022-09-16T11:20:08;5.77;;;1.00;;
15968;SDS011;8085;53.472;9.794;2022-09-16T11:23:05;4.23;;;1.07;;
15968;SDS011;8085;53.472;9.794;2022-09-16T11:25:41;3.20;;;0.93;;
15968;SDS011;8085;53.472;9.794;2022-09-16T11:28:29;6.07;;;1.30;;
15968;SDS011;8085;53.472;9.794;2022-09-16T11:31:13;4.80;;;0.80;;
15968;SDS011;8085;53.472;9.794;2022-09-16T11:33:47;4.13;;;1.23;;
15968;SDS011;8085;53.472;9.794;2022-09-16T11:36:22;6.33;;;1.50;;
15968;SDS011;8085;53.472;9.794;2022-09-16T11:39:12;5.90;;;1.10;;
15968;SDS011;8085;53.472;9.794;2022-09-16T11:41:54;4.57;;;1.33;;
15968;SDS011;8085;53.472;9.794;2022-09-16T11:44:35;3.23;;;0.93;;
15968;SDS011;8085;53.472;9.794;2022-09-16T11:47:12;6.63;;;1.30;;
15968;SDS011;8085;53.472;9.794;2022-09-16T11:56:07;4.07;;;1.00;;
15968;SDS011;8085;53.472;9.794;2022-09-16T11:58:38;5.30;;;1.00;;
15968;SDS011;8085;53.472;9.794;2022-09-16T12:01:14;4.43;;;1.00;;
15968;SDS011;8085;53.472;9.794;2022-09-16T12:03:52;4.30;;;0.97;;
15968;SDS011;8085;53.472;9.794;2022-09-16T12:06:24;4.37;;;1.10;;
15968;SDS011;8085;53.472;9.794;2022-09-16T12:08:56;5.43;;;0.87;;
15968;SDS011;8085;53.472;9.794;2022-09-16T12:11:32;5.20;;;1.13;;
15968;SDS011;8085;53.472;9.794;2022-09-16T12:14:05;3.67;;;0.90;;
15968;SDS011;8085;53.472;9.794;2022-09-16T12:16:38;10.67;;;1.87;;
15968;SDS011;8085;53.472;9.794;2022-09-16T12:19:10;5.40;;;1.43;;
15968;SDS011;8085;53.472;9.794;2022-09-16T12:21:45;6.10;;;1.03;;
15968;SDS011;8085;53.472;9.794;2022-09-16T12:24:18;4.50;;;1.27;;
15968;SDS011;8085;53.472;9.794;2022-09-16T12:26:53;6.57;;;0.97;;
15968;SDS011;8085;53.472;9.794;2022-09-16T12:29:26;4.27;;;1.30;;
15968;SDS011;8085;53.472;9.794;2022-09-16T12:32:02;3.53;;;1.03;;
15968;SDS011;8085;53.472;9.794;2022-09-16T12:34:32;5.10;;;1.10;;
15968;SDS011;8085;53.472;9.794;2022-09-16T12:37:06;9.67;;;1.40;;
15968;SDS011;8085;53.472;9.794;2022-09-16T12:39:39;10.70;;;1.80;;
15968;SDS011;8085;53.472;9.794;2022-09-16T12:42:28;5.17;;;1.30;;
15968;SDS011;8085;53.472;9.794;2022-09-16T12:45:24;5.17;;;1.10;;
15968;SDS011;8085;53.472;9.794;2022-09-16T12:48:26;6.17;;;1.23;;
15968;SDS011;8085;53.472;9.794;2022-09-16T12:51:13;7.90;;;1.13;;
15968;SDS011;8085;53.472;9.794;2022-09-16T12:57:14;6.70;;;1.20;;
15968;SDS011;8085;53.472;9.794;2022-09-16T12:59:57;4.20;;;1.30;;
15968;SDS011;8085;53.472;9.794;2022-09-16T13:02:44;5.17;;;1.43;;
15968;SDS011;8085;53.472;9.794;2022-09-16T13:05:17;3.53;;;1.10;;
15968;SDS011;8085;53.472;9.794;2022-09-16T13:07:49;5.40;;;1.20;;
15968;SDS011;8085;53.472;9.794;2022-09-16T13:10:18;6.27;;;1.20;;
15968;SDS011;8085;53.472;9.794;2022-09-16T13:12:48;12.83;;;1.97;;
15968;SDS011;8085;53.472;9.794;2022-09-16T13:15:24;6.73;;;1.57;;
15968;SDS011;8085;53.472;9.794;2022-09-16T13:17:53;7.07;;;1.63;;
15968;SDS011;8085;53.472;9.794;2022-09-16T13:20:22;5.47;;;1.30;;
15968;SDS011;8085;53.472;9.794;2022-09-16T13:23:02;4.97;;;1.30;;
15968;SDS011;8085;53.472;9.794;2022-09-16T13:25:33;8.63;;;1.67;;
15968;SDS011;8085;53.472;9.794;2022-09-16T13:28:21;6.03;;;1.30;;
15968;SDS011;8085;53.472;9.794;2022-09-16T13:30:51;8.63;;;1.87;;
15968;SDS011;8085;53.472;9.794;2022-09-16T13:33:23;6.83;;;1.20;;
15968;SDS011;8085;53.472;9.794;2022-09-16T13:36:03;5.20;;;1.20;;
15968;SDS011;8085;53.472;9.794;2022-09-16T13:38:39;4.97;;;1.17;;
15968;SDS011;8085;53.472;9.794;2022-09-16T13:41:09;4.53;;;1.00;;
15968;SDS011;8085;53.472;9.794;2022-09-16T13:43:47;4.03;;;1.00;;
15968;SDS011;8085;53.472;9.794;2022-09-16T13:46:27;3.17;;;0.83;;
15968;SDS011;8085;53.472;9.794;2022-09-16T13:48:59;4.03;;;1.13;;
15968;SDS011;8085;53.472;9.794;2022-09-16T13:51:37;4.83;;;1.53;;
15968;SDS011;8085;53.472;9.794;2022-09-16T13:54:13;4.63;;;0.93;;
15968;SDS011;8085;53.472;9.794;2022-09-16T13:56:47;8.23;;;1.43;;
15968;SDS011;8085;53.472;9.794;2022-09-16T13:59:27;9.00;;;1.77;;
15968;SDS011;8085;53.472;9.794;2022-09-16T14:02:07;4.70;;;1.40;;
15968;SDS011;8085;53.472;9.794;2022-09-16T14:04:44;4.77;;;1.17;;
15968;SDS011;8085;53.472;9.794;2022-09-16T14:07:37;9.43;;;1.60;;
15968;SDS011;8085;53.472;9.794;2022-09-16T14:10:12;7.60;;;1.70;;
15968;SDS011;8085;53.472;9.794;2022-09-16T14:12:49;5.87;;;1.70;;
15968;SDS011;8085;53.472;9.794;2022-09-16T14:15:24;12.30;;;1.73;;
15968;SDS011;8085;53.472;9.794;2022-09-16T14:17:55;6.73;;;1.50;;
15968;SDS011;8085;53.472;9.794;2022-09-16T14:20:26;4.63;;;1.30;;
15968;SDS011;8085;53.472;9.794;2022-09-16T14:23:00;8.67;;;1.70;;
15968;SDS011;8085;53.472;9.794;2022-09-16T14:25:29;6.27;;;1.60;;
15968;SDS011;8085;53.472;9.794;2022-09-16T14:28:09;6.87;;;1.57;;
15968;SDS011;8085;53.472;9.794;2022-09-16T14:30:46;5.27;;;1.20;;
15968;SDS011;8085;53.472;9.794;2022-09-16T14:33:16;6.83;;;1.53;;
15968;SDS011;8085;53.472;9.794;2022-09-16T14:35:47;6.20;;;1.30;;
15968;SDS011;8085;53.472;9.794;2022-09-16T14:38:17;7.93;;;1.53;;
15968;SDS011;8085;53.472;9.794;2022-09-16T14:40:47;8.60;;;1.60;;
15968;SDS011;8085;53.472;9.794;2022-09-16T14:43:15;10.77;;;1.80;;
15968;SDS011;8085;53.472;9.794;2022-09-16T14:45:47;7.23;;;1.60;;
15968;SDS011;8085;53.472;9.794;2022-09-16T14:48:17;10.17;;;1.50;;
15968;SDS011;8085;53.472;9.794;2022-09-16T14:50:47;15.13;;;1.73;;
15968;SDS011;8085;53.472;9.794;2022-09-16T14:53:22;5.73;;;1.57;;
15968;SDS011;8085;53.472;9.794;2022-09-16T14:55:54;8.47;;;1.80;;
15968;SDS011;8085;53.472;9.794;2022-09-16T14:58:21;10.70;;;2.03;;
15968;SDS011;8085;53.472;9.794;2022-09-16T15:00:51;8.97;;;1.40;;
15968;SDS011;8085;53.472;9.794;2022-09-16T15:03:23;6.37;;;1.50;;
15968;SDS011;8085;53.472;9.794;2022-09-16T15:05:54;8.03;;;1.60;;
15968;SDS011;8085;53.472;9.794;2022-09-16T15:08:24;8.47;;;1.83;;
15968;SDS011;8085;53.472;9.794;2022-09-16T15:10:56;5.43;;;1.50;;
15968;SDS011;8085;53.472;9.794;2022-09-16T15:13:24;9.90;;;1.67;;
15968;SDS011;8085;53.472;9.794;2022-09-16T15:15:53;11.50;;;1.60;;
15968;SDS011;8085;53.472;9.794;2022-09-16T15:18:26;8.93;;;1.87;;
15968;SDS011;8085;53.472;9.794;2022-09-16T15:21:00;11.13;;;1.80;;
15968;SDS011;8085;53.472;9.794;2022-09-16T15:23:30;7.93;;;1.60;;
15968;SDS011;8085;53.472;9.794;2022-09-16T15:25:58;10.13;;;1.70;;
15968;SDS011;8085;53.472;9.794;2022-09-16T15:28:34;11.80;;;1.70;;
15968;SDS011;8085;53.472;9.794;2022-09-16T15:31:01;8.47;;;1.40;;
15968;SDS011;8085;53.472;9.794;2022-09-16T15:33:33;7.83;;;1.60;;
15968;SDS011;8085;53.472;9.794;2022-09-16T15:36:02;9.17;;;1.50;;
15968;SDS011;8085;53.472;9.794;2022-09-16T15:38:31;9.20;;;1.87;;
15968;SDS011;8085;53.472;9.794;2022-09-16T15:40:59;5.43;;;1.70;;
15968;SDS011;8085;53.472;9.794;2022-09-16T15:43:28;8.40;;;1.50;;